sensor_id;sensor_type;location;lat;lon;timestamp;temperature;humidity
23534;DHT22;11944;50.796;4.322;2022-09-27T06:50:47;9.50;99.90
23534;DHT22;11944;50.796;4.322;2022-09-27T06:53:16;9.50;99.90
23534;DHT22;11944;50.796;4.322;2022-09-27T06:55:45;9.50;99.90
23534;DHT22;11944;50.796;4.322;2022-09-27T06:58:12;9.40;99.90
23534;DHT22;11944;50.796;4.322;2022-09-27T07:00:58;9.60;99.90
23534;DHT22;11944;50.796;4.322;2022-09-27T07:03:26;9.60;99.90
23534;DHT22;11944;50.796;4.322;2022-09-27T07:05:58;9.70;99.90
23534;DHT22;11944;50.796;4.322;2022-09-27T07:08:27;9.80;99.90
23534;DHT22;11944;50.796;4.322;2022-09-27T07:11:00;9.70;99.90
23534;DHT22;11944;50.796;4.322;2022-09-27T07:13:25;9.70;99.90
23534;DHT22;11944;50.796;4.322;2022-09-27T07:15:56;9.60;99.90
23534;DHT22;11944;50.796;4.322;2022-09-27T07:18:23;9.60;99.90
23534;DHT22;11944;50.796;4.322;2022-09-27T07:20:52;9.60;99.90
23534;DHT22;11944;50.796;4.322;2022-09-27T07:23:20;9.70;99.90
23534;DHT22;11944;50.796;4.322;2022-09-27T07:25:47;9.80;99.90
23534;DHT22;11944;50.796;4.322;2022-09-27T07:28:17;9.90;99.90
23534;DHT22;11944;50.796;4.322;2022-09-27T07:30:45;9.90;99.90
23534;DHT22;11944;50.796;4.322;2022-09-27T07:33:13;9.90;99.90
23534;DHT22;11944;50.796;4.322;2022-09-27T07:35:42;9.80;99.90
23534;DHT22;11944;50.796;4.322;2022-09-27T07:38:11;9.80;99.90
23534;DHT22;11944;50.796;4.322;2022-09-27T07:40:42;9.80;99.90
23534;DHT22;11944;50.796;4.322;2022-09-27T07:43:09;9.80;99.90
23534;DHT22;11944;50.796;4.322;2022-09-27T07:45:37;9.80;99.90
23534;DHT22;11944;50.796;4.322;2022-09-27T07:48:06;9.70;99.90
23534;DHT22;11944;50.796;4.322;2022-09-27T07:50:35;9.70;99.90
23534;DHT22;11944;50.796;4.322;2022-09-27T07:53:03;9.60;99.90
23534;DHT22;11944;50.796;4.322;2022-09-27T07:55:31;9.70;99.90
23534;DHT22;11944;50.796;4.322;2022-09-27T07:58:03;9.70;99.90
23534;DHT22;11944;50.796;4.322;2022-09-27T08:00:32;9.70;99.90
23534;DHT22;11944;50.796;4.322;2022-09-27T08:03:04;9.80;99.90
23534;DHT22;11944;50.796;4.322;2022-09-27T08:05:34;9.70;99.90
23534;DHT22;11944;50.796;4.322;2022-09-27T08:08:03;9.70;99.90
23534;DHT22;11944;50.796;4.322;2022-09-27T08:10:37;9.60;99.90
23534;DHT22;11944;50.796;4.322;2022-09-27T08:13:18;9.80;99.90
23534;DHT22;11944;50.796;4.322;2022-09-27T08:15:46;9.70;99.90
23534;DHT22;11944;50.796;4.322;2022-09-27T08:18:14;9.80;99.90
23534;DHT22;11944;50.796;4.322;2022-09-27T08:20:44;10.00;99.90
23534;DHT22;11944;50.796;4.322;2022-09-27T08:23:12;10.10;99.90
23534;DHT22;11944;50.796;4.322;2022-09-27T08:25:50;10.10;99.90
23534;DHT22;11944;50.796;4.322;2022-09-27T08:28:15;10.10;99.90
23534;DHT22;11944;50.796;4.322;2022-09-27T08:30:43;10.20;99.90
23534;DHT22;11944;50.796;4.322;2022-09-27T08:33:11;10.30;99.90
23534;DHT22;11944;50.796;4.322;2022-09-27T08:35:42;10.20;99.90
23534;DHT22;11944;50.796;4.322;2022-09-27T08:38:10;10.10;99.90
23534;DHT22;11944;50.796;4.322;2022-09-27T08:40:50;10.30;99.90
23534;DHT22;11944;50.796;4.322;2022-09-27T08:47:01;10.10;99.90
23534;DHT22;11944;50.796;4.322;2022-09-27T08:49:27;10.00;99.90
23534;DHT22;11944;50.796;4.322;2022-09-27T08:52:18;10.00;99.90
23534;DHT22;11944;50.796;4.322;2022-09-27T08:54:46;10.00;99.90
23534;DHT22;11944;50.796;4.322;2022-09-27T08:57:14;10.20;99.90
23534;DHT22;11944;50.796;4.322;2022-09-27T09:02:43;10.30;99.90
23534;DHT22;11944;50.796;4.322;2022-09-27T09:05:16;10.20;99.90
23534;DHT22;11944;50.796;4.322;2022-09-27T09:08:07;10.20;99.90
23534;DHT22;11944;50.796;4.322;2022-09-27T09:10:52;10.10;99.90
23534;DHT22;11944;50.796;4.322;2022-09-27T09:14:01;10.20;99.90
23534;DHT22;11944;50.796;4.322;2022-09-27T09:16:49;10.10;99.90
23534;DHT22;11944;50.796;4.322;2022-09-27T09:21:55;10.20;99.90
23534;DHT22;11944;50.796;4.322;2022-09-27T09:30:19;10.00;99.90
23534;DHT22;11944;50.796;4.322;2022-09-27T09:33:09;10.10;99.90
23534;DHT22;11944;50.796;4.322;2022-09-27T09:38:35;10.40;99.90
23534;DHT22;11944;50.796;4.322;2022-09-27T09:41:17;10.50;99.90
23534;DHT22;11944;50.796;4.322;2022-09-27T09:43:39;10.40;99.90
23534;DHT22;11944;50.796;4.322;2022-09-27T09:46:09;10.40;99.90
23534;DHT22;11944;50.796;4.322;2022-09-27T09:48:46;10.40;99.90
23534;DHT22;11944;50.796;4.322;2022-09-27T09:51:23;10.60;99.90
23534;DHT22;11944;50.796;4.322;2022-09-27T09:53:58;10.60;99.90
23534;DHT22;11944;50.796;4.322;2022-09-27T09:56:36;10.60;99.90
23534;DHT22;11944;50.796;4.322;2022-09-27T09:59:02;10.70;99.90
23534;DHT22;11944;50.796;4.322;2022-09-27T10:01:42;11.00;99.90
23534;DHT22;11944;50.796;4.322;2022-09-27T10:04:14;11.50;99.90
23534;DHT22;11944;50.796;4.322;2022-09-27T10:06:40;12.10;99.90
23534;DHT22;11944;50.796;4.322;2022-09-27T10:09:10;12.30;99.90
23534;DHT22;11944;50.796;4.322;2022-09-27T10:11:44;12.40;99.90
23534;DHT22;11944;50.796;4.322;2022-09-27T10:14:16;12.30;99.90
23534;DHT22;11944;50.796;4.322;2022-09-27T10:16:49;12.10;99.90
23534;DHT22;11944;50.796;4.322;2022-09-27T10:19:26;12.00;99.90
23534;DHT22;11944;50.796;4.322;2022-09-27T10:22:00;12.00;99.90
23534;DHT22;11944;50.796;4.322;2022-09-27T10:24:28;12.30;99.90
23534;DHT22;11944;50.796;4.322;2022-09-27T10:26:58;12.20;99.90
23534;DHT22;11944;50.796;4.322;2022-09-27T10:29:35;12.00;99.90
23534;DHT22;11944;50.796;4.322;2022-09-27T10:32:01;12.10;99.90
23534;DHT22;11944;50.796;4.322;2022-09-27T10:37:24;12.30;99.90
23534;DHT22;11944;50.796;4.322;2022-09-27T10:39:53;12.40;99.90
23534;DHT22;11944;50.796;4.322;2022-09-27T10:42:35;12.50;99.90
23534;DHT22;11944;50.796;4.322;2022-09-27T10:47:52;12.60;99.90
23534;DHT22;11944;50.796;4.322;2022-09-27T10:50:28;12.40;99.90
23534;DHT22;11944;50.796;4.322;2022-09-27T10:53:14;12.20;99.90
23534;DHT22;11944;50.796;4.322;2022-09-27T10:55:42;12.10;99.90
23534;DHT22;11944;50.796;4.322;2022-09-27T10:58:24;12.00;99.90
23534;DHT22;11944;50.796;4.322;2022-09-27T11:00:57;12.30;99.90
23534;DHT22;11944;50.796;4.322;2022-09-27T11:03:29;13.20;99.90
23534;DHT22;11944;50.796;4.322;2022-09-27T11:05:57;13.20;99.90
23534;DHT22;11944;50.796;4.322;2022-09-27T11:08:31;12.80;99.90
23534;DHT22;11944;50.796;4.322;2022-09-27T11:11:05;12.60;99.90
23534;DHT22;11944;50.796;4.322;2022-09-27T11:13:33;12.90;99.90
23534;DHT22;11944;50.796;4.322;2022-09-27T11:16:17;12.90;99.90
23534;DHT22;11944;50.796;4.322;2022-09-27T11:21:59;12.30;99.90
23534;DHT22;11944;50.796;4.322;2022-09-27T11:24:49;12.20;99.90
23534;DHT22;11944;50.796;4.322;2022-09-27T11:30:19;13.10;99.90
23534;DHT22;11944;50.796;4.322;2022-09-27T11:33:27;13.50;99.90
23534;DHT22;11944;50.796;4.322;2022-09-27T11:36:13;13.20;99.90
23534;DHT22;11944;50.796;4.322;2022-09-27T11:46:47;13.30;99.90
23534;DHT22;11944;50.796;4.322;2022-09-27T11:57:39;11.40;99.90
23534;DHT22;11944;50.796;4.322;2022-09-27T12:00:15;11.00;99.90
23534;DHT22;11944;50.796;4.322;2022-09-27T12:03:09;10.60;99.90
23534;DHT22;11944;50.796;4.322;2022-09-27T12:11:25;10.60;99.90
23534;DHT22;11944;50.796;4.322;2022-09-27T12:14:13;10.90;99.90
23534;DHT22;11944;50.796;4.322;2022-09-27T12:16:31;11.40;99.90
23534;DHT22;11944;50.796;4.322;2022-09-27T12:19:00;11.70;99.90
23534;DHT22;11944;50.796;4.322;2022-09-27T12:21:30;12.50;99.90
23534;DHT22;11944;50.796;4.322;2022-09-27T12:24:00;13.50;99.90
23534;DHT22;11944;50.796;4.322;2022-09-27T12:26:34;14.10;99.90
23534;DHT22;11944;50.796;4.322;2022-09-27T12:29:16;14.40;99.90
23534;DHT22;11944;50.796;4.322;2022-09-27T12:31:50;14.70;99.90
23534;DHT22;11944;50.796;4.322;2022-09-27T12:34:32;15.10;99.90
23534;DHT22;11944;50.796;4.322;2022-09-27T12:37:10;15.00;99.90
23534;DHT22;11944;50.796;4.322;2022-09-27T12:39:58;15.20;99.90
23534;DHT22;11944;50.796;4.322;2022-09-27T12:42:38;14.50;99.90
23534;DHT22;11944;50.796;4.322;2022-09-27T12:45:11;13.80;99.90
23534;DHT22;11944;50.796;4.322;2022-09-27T12:47:51;13.50;99.90
23534;DHT22;11944;50.796;4.322;2022-09-27T12:52:56;13.20;99.90
23534;DHT22;11944;50.796;4.322;2022-09-27T12:59:01;12.30;99.90
23534;DHT22;11944;50.796;4.322;2022-09-27T13:07:22;10.80;99.90
23534;DHT22;11944;50.796;4.322;2022-09-27T13:12:31;11.00;99.90
23534;DHT22;11944;50.796;4.322;2022-09-27T13:17:50;11.70;99.90
23534;DHT22;11944;50.796;4.322;2022-09-27T13:23:47;12.30;99.90
23534;DHT22;11944;50.796;4.322;2022-09-27T13:31:08;12.10;99.90
23534;DHT22;11944;50.796;4.322;2022-09-27T13:33:54;12.10;99.90
23534;DHT22;11944;50.796;4.322;2022-09-27T13:36:27;12.60;99.90
23534;DHT22;11944;50.796;4.322;2022-09-27T13:39:02;12.70;99.90
23534;DHT22;11944;50.796;4.322;2022-09-27T13:44:40;12.60;99.90
23534;DHT22;11944;50.796;4.322;2022-09-27T13:47:49;12.50;99.90
23534;DHT22;11944;50.796;4.322;2022-09-27T13:49:56;12.50;99.90
23534;DHT22;11944;50.796;4.322;2022-09-27T13:52:29;12.50;99.90
23534;DHT22;11944;50.796;4.322;2022-09-27T13:54:59;12.60;99.90
23534;DHT22;11944;50.796;4.322;2022-09-27T13:57:52;13.00;99.90
23534;DHT22;11944;50.796;4.322;2022-09-27T14:00:24;13.20;99.90
23534;DHT22;11944;50.796;4.322;2022-09-27T14:03:46;13.80;99.90
23534;DHT22;11944;50.796;4.322;2022-09-27T14:05:38;14.70;99.90
23534;DHT22;11944;50.796;4.322;2022-09-27T14:08:04;15.80;99.90
23534;DHT22;11944;50.796;4.322;2022-09-27T14:10:34;15.50;99.90
23534;DHT22;11944;50.796;4.322;2022-09-27T14:13:03;14.70;99.90
23534;DHT22;11944;50.796;4.322;2022-09-27T14:18:21;14.60;99.90
23534;DHT22;11944;50.796;4.322;2022-09-27T14:20:50;15.60;99.90
23534;DHT22;11944;50.796;4.322;2022-09-27T14:23:20;16.40;99.90
23534;DHT22;11944;50.796;4.322;2022-09-27T14:28:41;15.90;99.90
23534;DHT22;11944;50.796;4.322;2022-09-27T14:31:22;15.90;99.90
23534;DHT22;11944;50.796;4.322;2022-09-27T14:33:56;15.70;99.90
23534;DHT22;11944;50.796;4.322;2022-09-27T14:36:25;15.50;99.90
23534;DHT22;11944;50.796;4.322;2022-09-27T14:39:23;14.90;99.90
23534;DHT22;11944;50.796;4.322;2022-09-27T14:41:51;14.00;99.90
23534;DHT22;11944;50.796;4.322;2022-09-27T14:44:19;13.50;99.90
23534;DHT22;11944;50.796;4.322;2022-09-27T14:46:47;13.20;99.90
23534;DHT22;11944;50.796;4.322;2022-09-27T14:49:21;12.90;99.90
23534;DHT22;11944;50.796;4.322;2022-09-27T14:51:54;12.40;99.90
23534;DHT22;11944;50.796;4.322;2022-09-27T14:54:24;12.20;99.90
23534;DHT22;11944;50.796;4.322;2022-09-27T14:56:56;12.10;99.90
23534;DHT22;11944;50.796;4.322;2022-09-27T14:59:32;11.90;99.90
23534;DHT22;11944;50.796;4.322;2022-09-27T15:02:08;11.90;99.90
23534;DHT22;11944;50.796;4.322;2022-09-27T15:04:33;12.00;99.90
23534;DHT22;11944;50.796;4.322;2022-09-27T15:07:02;11.90;99.90
23534;DHT22;11944;50.796;4.322;2022-09-27T15:09:30;11.90;99.90
23534;DHT22;11944;50.796;4.322;2022-09-27T15:11:59;12.10;99.90
23534;DHT22;11944;50.796;4.322;2022-09-27T15:14:29;12.10;99.90
23534;DHT22;11944;50.796;4.322;2022-09-27T15:16:59;12.20;99.90
23534;DHT22;11944;50.796;4.322;2022-09-27T15:19:29;12.30;99.90
23534;DHT22;11944;50.796;4.322;2022-09-27T15:24:46;12.80;99.90
23534;DHT22;11944;50.796;4.322;2022-09-27T15:27:22;12.90;99.90
23534;DHT22;11944;50.796;4.322;2022-09-27T15:29:57;13.20;99.90
23534;DHT22;11944;50.796;4.322;2022-09-27T15:32:22;13.90;99.90
23534;DHT22;11944;50.796;4.322;2022-09-27T15:34:51;14.20;99.90
23534;DHT22;11944;50.796;4.322;2022-09-27T15:42:59;13.50;99.90
23534;DHT22;11944;50.796;4.322;2022-09-27T15:45:30;14.00;99.90
23534;DHT22;11944;50.796;4.322;2022-09-27T15:48:13;14.30;99.90
23534;DHT22;11944;50.796;4.322;2022-09-27T15:50:41;14.60;99.90
23534;DHT22;11944;50.796;4.322;2022-09-27T15:53:09;14.70;99.90
23534;DHT22;11944;50.796;4.322;2022-09-27T15:55:56;14.40;99.90
23534;DHT22;11944;50.796;4.322;2022-09-27T15:58:24;14.60;99.90
23534;DHT22;11944;50.796;4.322;2022-09-27T16:00:54;14.80;99.90
23534;DHT22;11944;50.796;4.322;2022-09-27T16:03:23;14.60;99.90
23534;DHT22;11944;50.796;4.322;2022-09-27T16:05:51;14.30;99.90
23534;DHT22;11944;50.796;4.322;2022-09-27T16:08:21;14.30;99.90
23534;DHT22;11944;50.796;4.322;2022-09-27T16:10:57;14.30;99.90
23534;DHT22;11944;50.796;4.322;2022-09-27T16:13:26;14.10;99.90
23534;DHT22;11944;50.796;4.322;2022-09-27T16:15:54;13.90;99.90
23534;DHT22;11944;50.796;4.322;2022-09-27T16:18:21;13.70;99.90
23534;DHT22;11944;50.796;4.322;2022-09-27T16:20:49;13.40;99.90
23534;DHT22;11944;50.796;4.322;2022-09-27T16:23:16;13.20;99.90
23534;DHT22;11944;50.796;4.322;2022-09-27T16:25:44;13.00;99.90
23534;DHT22;11944;50.796;4.322;2022-09-27T16:28:11;13.20;99.90
23534;DHT22;11944;50.796;4.322;2022-09-27T16:30:39;13.30;99.90
23534;DHT22;11944;50.796;4.322;2022-09-27T16:33:07;13.30;99.90
23534;DHT22;11944;50.796;4.322;2022-09-27T16:35:34;13.30;99.90
23534;DHT22;11944;50.796;4.322;2022-09-27T16:38:03;13.30;99.90
23534;DHT22;11944;50.796;4.322;2022-09-27T16:40:31;13.30;99.90
23534;DHT22;11944;50.796;4.322;2022-09-27T16:42:58;13.30;99.90
23534;DHT22;11944;50.796;4.322;2022-09-27T16:45:26;13.10;99.90
23534;DHT22;11944;50.796;4.322;2022-09-27T16:47:55;13.10;99.90
23534;DHT22;11944;50.796;4.322;2022-09-27T16:50:22;13.00;99.90
23534;DHT22;11944;50.796;4.322;2022-09-27T16:53:08;13.00;99.90
23534;DHT22;11944;50.796;4.322;2022-09-27T16:55:35;13.10;99.90
23534;DHT22;11944;50.796;4.322;2022-09-27T16:58:03;13.10;99.90
23534;DHT22;11944;50.796;4.322;2022-09-27T17:00:33;13.10;99.90
23534;DHT22;11944;50.796;4.322;2022-09-27T17:03:00;13.10;99.90
23534;DHT22;11944;50.796;4.322;2022-09-27T17:05:28;13.10;99.90
23534;DHT22;11944;50.796;4.322;2022-09-27T17:07:57;13.20;99.90
23534;DHT22;11944;50.796;4.322;2022-09-27T17:10:25;13.20;99.90
23534;DHT22;11944;50.796;4.322;2022-09-27T17:12:52;13.10;99.90
23534;DHT22;11944;50.796;4.322;2022-09-27T17:15:22;13.10;99.90
23534;DHT22;11944;50.796;4.322;2022-09-27T17:17:49;13.10;99.90
23534;DHT22;11944;50.796;4.322;2022-09-27T17:20:17;13.10;99.90
23534;DHT22;11944;50.796;4.322;2022-09-27T17:22:44;13.10;99.90
23534;DHT22;11944;50.796;4.322;2022-09-27T17:25:12;13.00;99.90
23534;DHT22;11944;50.796;4.322;2022-09-27T17:27:40;13.00;99.90
23534;DHT22;11944;50.796;4.322;2022-09-27T17:30:07;13.00;99.90
23534;DHT22;11944;50.796;4.322;2022-09-27T17:32:35;12.90;99.90
23534;DHT22;11944;50.796;4.322;2022-09-27T17:35:05;12.90;99.90
23534;DHT22;11944;50.796;4.322;2022-09-27T17:37:33;12.90;99.90
23534;DHT22;11944;50.796;4.322;2022-09-27T17:40:01;12.80;99.90
23534;DHT22;11944;50.796;4.322;2022-09-27T17:42:29;12.80;99.90
23534;DHT22;11944;50.796;4.322;2022-09-27T17:44:57;12.70;99.90
23534;DHT22;11944;50.796;4.322;2022-09-27T17:47:25;12.60;99.90
23534;DHT22;11944;50.796;4.322;2022-09-27T17:50:11;12.60;99.90
23534;DHT22;11944;50.796;4.322;2022-09-27T17:52:51;12.60;99.90
23534;DHT22;11944;50.796;4.322;2022-09-27T17:55:38;12.50;99.90
23534;DHT22;11944;50.796;4.322;2022-09-27T17:58:06;12.50;99.90
23534;DHT22;11944;50.796;4.322;2022-09-27T18:00:34;12.30;99.90
23534;DHT22;11944;50.796;4.322;2022-09-27T18:03:02;12.20;99.90
23534;DHT22;11944;50.796;4.322;2022-09-27T18:05:29;12.20;99.90
23534;DHT22;11944;50.796;4.322;2022-09-27T18:07:58;12.00;99.90
23534;DHT22;11944;50.796;4.322;2022-09-27T18:10:26;11.90;99.90
23534;DHT22;11944;50.796;4.322;2022-09-27T18:12:53;11.90;99.90
23534;DHT22;11944;50.796;4.322;2022-09-27T18:15:21;11.90;99.90
23534;DHT22;11944;50.796;4.322;2022-09-27T18:17:49;11.90;99.90
23534;DHT22;11944;50.796;4.322;2022-09-27T18:20:17;11.80;99.90
23534;DHT22;11944;50.796;4.322;2022-09-27T18:22:45;11.80;99.90
23534;DHT22;11944;50.796;4.322;2022-09-27T18:25:12;11.80;99.90
23534;DHT22;11944;50.796;4.322;2022-09-27T18:27:40;11.80;99.90
23534;DHT22;11944;50.796;4.322;2022-09-27T18:30:09;11.70;99.90
23534;DHT22;11944;50.796;4.322;2022-09-27T18:32:37;11.80;99.90
23534;DHT22;11944;50.796;4.322;2022-09-27T18:35:06;11.80;99.90
23534;DHT22;11944;50.796;4.322;2022-09-27T18:37:35;11.90;99.90
23534;DHT22;11944;50.796;4.322;2022-09-27T18:40:03;11.90;99.90
23534;DHT22;11944;50.796;4.322;2022-09-27T18:42:30;11.80;99.90
23534;DHT22;11944;50.796;4.322;2022-09-27T18:45:14;11.80;99.90
23534;DHT22;11944;50.796;4.322;2022-09-27T18:47:42;11.70;99.90
23534;DHT22;11944;50.796;4.322;2022-09-27T18:50:29;11.70;99.90
23534;DHT22;11944;50.796;4.322;2022-09-27T18:52:56;11.60;99.90
23534;DHT22;11944;50.796;4.322;2022-09-27T18:55:24;11.60;99.90
23534;DHT22;11944;50.796;4.322;2022-09-27T18:57:52;11.50;99.90
23534;DHT22;11944;50.796;4.322;2022-09-27T19:00:20;11.50;99.90
23534;DHT22;11944;50.796;4.322;2022-09-27T19:02:48;11.50;99.90
23534;DHT22;11944;50.796;4.322;2022-09-27T19:05:17;11.50;99.90
23534;DHT22;11944;50.796;4.322;2022-09-27T19:07:45;11.50;99.90
23534;DHT22;11944;50.796;4.322;2022-09-27T19:10:12;11.40;99.90
23534;DHT22;11944;50.796;4.322;2022-09-27T19:12:40;11.30;99.90
23534;DHT22;11944;50.796;4.322;2022-09-27T19:15:09;11.30;99.90
23534;DHT22;11944;50.796;4.322;2022-09-27T19:17:36;11.20;99.90
23534;DHT22;11944;50.796;4.322;2022-09-27T19:20:04;11.20;99.90
23534;DHT22;11944;50.796;4.322;2022-09-27T19:22:33;11.10;99.90
23534;DHT22;11944;50.796;4.322;2022-09-27T19:25:00;11.00;99.90
23534;DHT22;11944;50.796;4.322;2022-09-27T19:27:29;10.90;99.90
23534;DHT22;11944;50.796;4.322;2022-09-27T19:29:57;10.90;99.90
23534;DHT22;11944;50.796;4.322;2022-09-27T19:32:25;10.90;99.90
23534;DHT22;11944;50.796;4.322;2022-09-27T19:34:53;10.90;99.90
23534;DHT22;11944;50.796;4.322;2022-09-27T19:37:20;10.80;99.90
23534;DHT22;11944;50.796;4.322;2022-09-27T19:39:48;10.80;99.90
23534;DHT22;11944;50.796;4.322;2022-09-27T19:42:16;10.80;99.90
23534;DHT22;11944;50.796;4.322;2022-09-27T19:44:43;10.80;99.90
23534;DHT22;11944;50.796;4.322;2022-09-27T19:47:11;10.80;99.90
23534;DHT22;11944;50.796;4.322;2022-09-27T19:49:38;10.70;99.90
23534;DHT22;11944;50.796;4.322;2022-09-27T19:52:06;10.80;99.90
23534;DHT22;11944;50.796;4.322;2022-09-27T19:54:34;10.80;99.90
23534;DHT22;11944;50.796;4.322;2022-09-27T19:57:01;10.90;99.90
23534;DHT22;11944;50.796;4.322;2022-09-27T19:59:29;10.80;99.90
23534;DHT22;11944;50.796;4.322;2022-09-27T20:01:56;10.90;99.90
23534;DHT22;11944;50.796;4.322;2022-09-27T20:04:24;11.00;99.90
23534;DHT22;11944;50.796;4.322;2022-09-27T20:06:52;11.00;99.90
23534;DHT22;11944;50.796;4.322;2022-09-27T20:09:19;11.00;99.90
23534;DHT22;11944;50.796;4.322;2022-09-27T20:11:47;10.90;99.90
23534;DHT22;11944;50.796;4.322;2022-09-27T20:14:14;10.90;99.90
23534;DHT22;11944;50.796;4.322;2022-09-27T20:16:42;10.90;99.90
23534;DHT22;11944;50.796;4.322;2022-09-27T20:19:09;10.90;99.90
23534;DHT22;11944;50.796;4.322;2022-09-27T20:21:37;10.80;99.90
23534;DHT22;11944;50.796;4.322;2022-09-27T20:24:05;10.90;99.90
23534;DHT22;11944;50.796;4.322;2022-09-27T20:26:33;10.90;99.90
23534;DHT22;11944;50.796;4.322;2022-09-27T20:29:03;10.90;99.90
23534;DHT22;11944;50.796;4.322;2022-09-27T20:31:33;10.90;99.90
23534;DHT22;11944;50.796;4.322;2022-09-27T20:34:04;10.90;99.90
23534;DHT22;11944;50.796;4.322;2022-09-27T20:36:34;10.90;99.90
23534;DHT22;11944;50.796;4.322;2022-09-27T20:39:12;11.00;99.90
23534;DHT22;11944;50.796;4.322;2022-09-27T20:41:46;10.90;99.90
23534;DHT22;11944;50.796;4.322;2022-09-27T20:44:14;10.80;99.90
23534;DHT22;11944;50.796;4.322;2022-09-27T20:46:42;10.80;99.90
23534;DHT22;11944;50.796;4.322;2022-09-27T20:49:12;10.80;99.90
23534;DHT22;11944;50.796;4.322;2022-09-27T20:51:42;10.90;99.90
23534;DHT22;11944;50.796;4.322;2022-09-27T20:54:11;10.90;99.90
23534;DHT22;11944;50.796;4.322;2022-09-27T20:56:41;10.90;99.90
23534;DHT22;11944;50.796;4.322;2022-09-27T20:59:21;10.90;99.90
23534;DHT22;11944;50.796;4.322;2022-09-27T21:01:47;10.80;99.90
23534;DHT22;11944;50.796;4.322;2022-09-27T21:04:17;10.70;99.90
23534;DHT22;11944;50.796;4.322;2022-09-27T21:06:45;10.60;99.90
23534;DHT22;11944;50.796;4.322;2022-09-27T21:09:13;10.50;99.90
23534;DHT22;11944;50.796;4.322;2022-09-27T21:11:48;10.40;99.90
23534;DHT22;11944;50.796;4.322;2022-09-27T21:14:17;10.40;99.90
23534;DHT22;11944;50.796;4.322;2022-09-27T21:16:51;10.40;99.90
23534;DHT22;11944;50.796;4.322;2022-09-27T21:19:18;10.30;99.90
23534;DHT22;11944;50.796;4.322;2022-09-27T21:21:46;10.30;99.90
23534;DHT22;11944;50.796;4.322;2022-09-27T21:24:13;10.30;99.90
23534;DHT22;11944;50.796;4.322;2022-09-27T21:26:41;10.30;99.90
23534;DHT22;11944;50.796;4.322;2022-09-27T21:29:14;10.30;99.90
23534;DHT22;11944;50.796;4.322;2022-09-27T21:31:44;10.20;99.90
23534;DHT22;11944;50.796;4.322;2022-09-27T21:34:12;10.20;99.90
23534;DHT22;11944;50.796;4.322;2022-09-27T21:36:39;10.30;99.90
23534;DHT22;11944;50.796;4.322;2022-09-27T21:39:08;10.30;99.90
23534;DHT22;11944;50.796;4.322;2022-09-27T21:41:36;10.30;99.90
23534;DHT22;11944;50.796;4.322;2022-09-27T21:44:05;10.30;99.90
23534;DHT22;11944;50.796;4.322;2022-09-27T21:46:32;10.40;99.90
23534;DHT22;11944;50.796;4.322;2022-09-27T21:49:01;10.40;99.90
23534;DHT22;11944;50.796;4.322;2022-09-27T21:51:31;10.20;99.90
23534;DHT22;11944;50.796;4.322;2022-09-27T21:54:00;10.00;99.90
23534;DHT22;11944;50.796;4.322;2022-09-27T21:56:32;9.90;99.90
23534;DHT22;11944;50.796;4.322;2022-09-27T21:59:03;9.90;99.90
23534;DHT22;11944;50.796;4.322;2022-09-27T22:01:41;9.90;99.90
23534;DHT22;11944;50.796;4.322;2022-09-27T22:04:09;9.80;99.90
23534;DHT22;11944;50.796;4.322;2022-09-27T22:06:37;9.80;99.90
23534;DHT22;11944;50.796;4.322;2022-09-27T22:09:10;9.80;99.90
23534;DHT22;11944;50.796;4.322;2022-09-27T22:11:39;9.80;99.90
23534;DHT22;11944;50.796;4.322;2022-09-27T22:14:09;9.90;99.90
23534;DHT22;11944;50.796;4.322;2022-09-27T22:16:37;9.80;99.90
23534;DHT22;11944;50.796;4.322;2022-09-27T22:19:24;9.70;99.90
23534;DHT22;11944;50.796;4.322;2022-09-27T22:21:51;9.70;99.90
23534;DHT22;11944;50.796;4.322;2022-09-27T22:24:19;9.60;99.90
23534;DHT22;11944;50.796;4.322;2022-09-27T22:26:48;9.70;99.90
23534;DHT22;11944;50.796;4.322;2022-09-27T22:29:17;9.70;99.90
23534;DHT22;11944;50.796;4.322;2022-09-27T22:31:45;9.80;99.90
23534;DHT22;11944;50.796;4.322;2022-09-27T22:34:16;9.90;99.90
23534;DHT22;11944;50.796;4.322;2022-09-27T22:36:45;10.00;99.90
23534;DHT22;11944;50.796;4.322;2022-09-27T22:39:13;10.10;99.90
23534;DHT22;11944;50.796;4.322;2022-09-27T22:41:40;10.10;99.90
23534;DHT22;11944;50.796;4.322;2022-09-27T22:44:08;10.10;99.90
23534;DHT22;11944;50.796;4.322;2022-09-27T22:46:35;10.10;99.90
23534;DHT22;11944;50.796;4.322;2022-09-27T22:49:03;10.00;99.90
23534;DHT22;11944;50.796;4.322;2022-09-27T22:51:30;10.00;99.90
23534;DHT22;11944;50.796;4.322;2022-09-27T22:53:58;10.10;99.90
23534;DHT22;11944;50.796;4.322;2022-09-27T22:56:25;10.10;99.90
23534;DHT22;11944;50.796;4.322;2022-09-27T22:58:53;10.10;99.90
23534;DHT22;11944;50.796;4.322;2022-09-27T23:01:22;10.00;99.90
23534;DHT22;11944;50.796;4.322;2022-09-27T23:03:53;10.00;99.90
23534;DHT22;11944;50.796;4.322;2022-09-27T23:06:21;10.00;99.90
23534;DHT22;11944;50.796;4.322;2022-09-27T23:08:49;9.90;99.90
23534;DHT22;11944;50.796;4.322;2022-09-27T23:11:19;9.80;99.90
23534;DHT22;11944;50.796;4.322;2022-09-27T23:13:48;9.80;99.90
23534;DHT22;11944;50.796;4.322;2022-09-27T23:16:22;9.80;99.90
23534;DHT22;11944;50.796;4.322;2022-09-27T23:18:53;9.60;99.90
23534;DHT22;11944;50.796;4.322;2022-09-27T23:21:20;9.60;99.90
23534;DHT22;11944;50.796;4.322;2022-09-27T23:23:50;9.60;99.90
23534;DHT22;11944;50.796;4.322;2022-09-27T23:26:23;9.50;99.90
23534;DHT22;11944;50.796;4.322;2022-09-27T23:28:59;9.60;99.90
23534;DHT22;11944;50.796;4.322;2022-09-27T23:31:29;9.50;99.90
23534;DHT22;11944;50.796;4.322;2022-09-27T23:34:00;9.60;99.90
23534;DHT22;11944;50.796;4.322;2022-09-27T23:36:28;9.50;99.90
23534;DHT22;11944;50.796;4.322;2022-09-27T23:38:58;9.40;99.90
23534;DHT22;11944;50.796;4.322;2022-09-27T23:41:32;9.40;99.90
23534;DHT22;11944;50.796;4.322;2022-09-27T23:44:00;9.40;99.90
23534;DHT22;11944;50.796;4.322;2022-09-27T23:46:27;9.40;99.90
23534;DHT22;11944;50.796;4.322;2022-09-27T23:48:56;9.30;99.90
23534;DHT22;11944;50.796;4.322;2022-09-27T23:51:24;9.30;99.90
23534;DHT22;11944;50.796;4.322;2022-09-27T23:53:51;9.30;99.90
23534;DHT22;11944;50.796;4.322;2022-09-27T23:56:19;9.30;99.90
23534;DHT22;11944;50.796;4.322;2022-09-27T23:58:46;9.40;99.90
